sensor_id;sensor_type;location;lat;lon;timestamp;P1;durP1;ratioP1;P2;durP2;ratioP2
64367;SDS011;50692;53.314;-6.300;2023-09-12T00:00:31;6.90;;;2.50;;
64367;SDS011;50692;53.314;-6.300;2023-09-12T00:03:21;7.20;;;3.00;;
64367;SDS011;50692;53.314;-6.300;2023-09-12T00:06:08;6.38;;;2.72;;
64367;SDS011;50692;53.314;-6.300;2023-09-12T00:08:54;4.38;;;2.60;;
64367;SDS011;50692;53.314;-6.300;2023-09-12T00:11:40;3.97;;;1.88;;
64367;SDS011;50692;53.314;-6.300;2023-09-12T00:14:26;1.85;;;1.67;;
64367;SDS011;50692;53.314;-6.300;2023-09-12T00:17:11;2.80;;;1.45;;
64367;SDS011;50692;53.314;-6.300;2023-09-12T00:19:57;2.67;;;1.50;;
64367;SDS011;50692;53.314;-6.300;2023-09-12T00:22:43;2.00;;;1.27;;
64367;SDS011;50692;53.314;-6.300;2023-09-12T00:25:29;3.75;;;1.25;;
64367;SDS011;50692;53.314;-6.300;2023-09-12T00:28:15;2.83;;;1.42;;
64367;SDS011;50692;53.314;-6.300;2023-09-12T00:31:00;3.17;;;1.50;;
64367;SDS011;50692;53.314;-6.300;2023-09-12T00:33:46;3.10;;;1.30;;
64367;SDS011;50692;53.314;-6.300;2023-09-12T00:36:32;3.03;;;1.40;;
64367;SDS011;50692;53.314;-6.300;2023-09-12T00:39:18;4.38;;;1.65;;
64367;SDS011;50692;53.314;-6.300;2023-09-12T00:42:04;3.50;;;1.50;;
64367;SDS011;50692;53.314;-6.300;2023-09-12T00:44:52;3.03;;;1.40;;
64367;SDS011;50692;53.314;-6.300;2023-09-12T00:47:38;2.42;;;1.48;;
64367;SDS011;50692;53.314;-6.300;2023-09-12T00:50:24;4.03;;;1.42;;
64367;SDS011;50692;53.314;-6.300;2023-09-12T00:53:10;4.68;;;1.63;;
64367;SDS011;50692;53.314;-6.300;2023-09-12T00:55:57;4.60;;;1.30;;
64367;SDS011;50692;53.314;-6.300;2023-09-12T00:58:44;5.00;;;1.50;;
64367;SDS011;50692;53.314;-6.300;2023-09-12T01:01:31;2.20;;;1.25;;
64367;SDS011;50692;53.314;-6.300;2023-09-12T01:04:18;4.53;;;1.27;;
64367;SDS011;50692;53.314;-6.300;2023-09-12T01:07:06;4.22;;;1.42;;
64367;SDS011;50692;53.314;-6.300;2023-09-12T01:09:52;2.20;;;1.17;;
64367;SDS011;50692;53.314;-6.300;2023-09-12T01:12:38;4.03;;;1.25;;
64367;SDS011;50692;53.314;-6.300;2023-09-12T01:15:24;1.88;;;1.17;;
64367;SDS011;50692;53.314;-6.300;2023-09-12T01:18:10;4.45;;;1.23;;
64367;SDS011;50692;53.314;-6.300;2023-09-12T01:21:20;2.83;;;1.40;;
64367;SDS011;50692;53.314;-6.300;2023-09-12T01:27:30;2.03;;;1.17;;
64367;SDS011;50692;53.314;-6.300;2023-09-12T01:30:23;5.20;;;1.70;;
64367;SDS011;50692;53.314;-6.300;2023-09-12T01:33:11;2.70;;;1.30;;
64367;SDS011;50692;53.314;-6.300;2023-09-12T01:35:56;3.33;;;1.38;;
64367;SDS011;50692;53.314;-6.300;2023-09-12T01:38:42;2.95;;;1.30;;
64367;SDS011;50692;53.314;-6.300;2023-09-12T01:41:28;3.58;;;1.60;;
64367;SDS011;50692;53.314;-6.300;2023-09-12T01:44:17;3.45;;;1.50;;
64367;SDS011;50692;53.314;-6.300;2023-09-12T01:47:08;4.75;;;1.80;;
64367;SDS011;50692;53.314;-6.300;2023-09-12T01:49:56;5.63;;;1.55;;
64367;SDS011;50692;53.314;-6.300;2023-09-12T01:52:44;3.15;;;1.48;;
64367;SDS011;50692;53.314;-6.300;2023-09-12T01:55:30;2.58;;;1.50;;
64367;SDS011;50692;53.314;-6.300;2023-09-12T01:58:17;7.15;;;1.98;;
64367;SDS011;50692;53.314;-6.300;2023-09-12T02:01:03;4.65;;;1.80;;
64367;SDS011;50692;53.314;-6.300;2023-09-12T02:03:49;3.95;;;1.50;;
64367;SDS011;50692;53.314;-6.300;2023-09-12T02:06:35;4.47;;;1.92;;
64367;SDS011;50692;53.314;-6.300;2023-09-12T02:09:21;4.68;;;2.30;;
64367;SDS011;50692;53.314;-6.300;2023-09-12T02:12:07;4.15;;;2.40;;
64367;SDS011;50692;53.314;-6.300;2023-09-12T02:14:54;4.45;;;2.30;;
64367;SDS011;50692;53.314;-6.300;2023-09-12T02:17:40;3.35;;;1.95;;
64367;SDS011;50692;53.314;-6.300;2023-09-12T02:20:25;4.50;;;1.98;;
64367;SDS011;50692;53.314;-6.300;2023-09-12T02:23:11;3.97;;;1.83;;
64367;SDS011;50692;53.314;-6.300;2023-09-12T02:25:57;2.45;;;1.58;;
64367;SDS011;50692;53.314;-6.300;2023-09-12T02:28:43;2.78;;;1.83;;
64367;SDS011;50692;53.314;-6.300;2023-09-12T02:31:31;5.72;;;1.67;;
64367;SDS011;50692;53.314;-6.300;2023-09-12T02:34:17;3.42;;;1.50;;
64367;SDS011;50692;53.314;-6.300;2023-09-12T02:37:04;2.47;;;1.08;;
64367;SDS011;50692;53.314;-6.300;2023-09-12T02:39:49;2.15;;;1.38;;
64367;SDS011;50692;53.314;-6.300;2023-09-12T02:42:35;1.75;;;0.98;;
64367;SDS011;50692;53.314;-6.300;2023-09-12T02:45:21;2.75;;;1.20;;
64367;SDS011;50692;53.314;-6.300;2023-09-12T02:48:07;3.20;;;0.90;;
64367;SDS011;50692;53.314;-6.300;2023-09-12T02:50:52;2.17;;;0.82;;
64367;SDS011;50692;53.314;-6.300;2023-09-12T02:53:38;1.98;;;0.80;;
64367;SDS011;50692;53.314;-6.300;2023-09-12T02:56:24;1.58;;;1.00;;
64367;SDS011;50692;53.314;-6.300;2023-09-12T02:59:10;1.13;;;0.90;;
64367;SDS011;50692;53.314;-6.300;2023-09-12T03:01:56;5.05;;;1.10;;
64367;SDS011;50692;53.314;-6.300;2023-09-12T03:04:42;3.20;;;1.33;;
64367;SDS011;50692;53.314;-6.300;2023-09-12T03:07:29;2.28;;;1.27;;
64367;SDS011;50692;53.314;-6.300;2023-09-12T03:10:15;3.00;;;1.40;;
64367;SDS011;50692;53.314;-6.300;2023-09-12T03:13:01;2.03;;;0.80;;
64367;SDS011;50692;53.314;-6.300;2023-09-12T03:15:47;1.92;;;0.90;;
64367;SDS011;50692;53.314;-6.300;2023-09-12T03:18:33;2.13;;;0.80;;
64367;SDS011;50692;53.314;-6.300;2023-09-12T03:21:19;3.13;;;1.10;;
64367;SDS011;50692;53.314;-6.300;2023-09-12T03:24:05;2.33;;;1.30;;
64367;SDS011;50692;53.314;-6.300;2023-09-12T03:26:51;2.33;;;0.95;;
64367;SDS011;50692;53.314;-6.300;2023-09-12T03:29:37;2.30;;;1.05;;
64367;SDS011;50692;53.314;-6.300;2023-09-12T03:32:23;2.40;;;1.00;;
64367;SDS011;50692;53.314;-6.300;2023-09-12T03:35:09;3.30;;;1.15;;
64367;SDS011;50692;53.314;-6.300;2023-09-12T03:37:54;2.58;;;1.02;;
64367;SDS011;50692;53.314;-6.300;2023-09-12T03:40:40;1.83;;;1.10;;
64367;SDS011;50692;53.314;-6.300;2023-09-12T03:43:26;1.75;;;1.10;;
64367;SDS011;50692;53.314;-6.300;2023-09-12T03:46:12;2.20;;;1.20;;
64367;SDS011;50692;53.314;-6.300;2023-09-12T03:48:59;1.70;;;1.08;;
64367;SDS011;50692;53.314;-6.300;2023-09-12T03:51:44;2.75;;;1.13;;
64367;SDS011;50692;53.314;-6.300;2023-09-12T03:54:30;4.10;;;1.23;;
64367;SDS011;50692;53.314;-6.300;2023-09-12T03:57:16;2.50;;;1.10;;
64367;SDS011;50692;53.314;-6.300;2023-09-12T04:00:02;1.90;;;0.93;;
64367;SDS011;50692;53.314;-6.300;2023-09-12T04:02:51;2.72;;;1.42;;
64367;SDS011;50692;53.314;-6.300;2023-09-12T04:05:37;1.45;;;0.90;;
64367;SDS011;50692;53.314;-6.300;2023-09-12T04:08:23;2.25;;;0.88;;
64367;SDS011;50692;53.314;-6.300;2023-09-12T04:11:09;4.35;;;0.90;;
64367;SDS011;50692;53.314;-6.300;2023-09-12T04:13:56;2.08;;;1.02;;
64367;SDS011;50692;53.314;-6.300;2023-09-12T04:16:42;3.78;;;0.93;;
64367;SDS011;50692;53.314;-6.300;2023-09-12T04:19:28;2.88;;;1.27;;
64367;SDS011;50692;53.314;-6.300;2023-09-12T04:22:13;3.38;;;1.20;;
64367;SDS011;50692;53.314;-6.300;2023-09-12T04:24:59;2.42;;;1.17;;
64367;SDS011;50692;53.314;-6.300;2023-09-12T04:27:45;2.38;;;1.00;;
64367;SDS011;50692;53.314;-6.300;2023-09-12T04:30:32;1.83;;;1.10;;
64367;SDS011;50692;53.314;-6.300;2023-09-12T04:33:18;3.38;;;1.40;;
64367;SDS011;50692;53.314;-6.300;2023-09-12T04:36:03;3.42;;;1.60;;
64367;SDS011;50692;53.314;-6.300;2023-09-12T04:38:50;4.28;;;1.67;;
64367;SDS011;50692;53.314;-6.300;2023-09-12T04:41:35;3.08;;;1.65;;
64367;SDS011;50692;53.314;-6.300;2023-09-12T04:44:22;4.70;;;1.80;;
64367;SDS011;50692;53.314;-6.300;2023-09-12T04:47:08;5.47;;;2.10;;
64367;SDS011;50692;53.314;-6.300;2023-09-12T04:49:54;4.28;;;2.20;;
64367;SDS011;50692;53.314;-6.300;2023-09-12T04:52:41;6.35;;;2.33;;
64367;SDS011;50692;53.314;-6.300;2023-09-12T04:55:27;3.65;;;2.55;;
64367;SDS011;50692;53.314;-6.300;2023-09-12T04:58:12;6.00;;;3.45;;
64367;SDS011;50692;53.314;-6.300;2023-09-12T05:00:58;7.38;;;3.92;;
64367;SDS011;50692;53.314;-6.300;2023-09-12T05:03:44;6.40;;;4.00;;
64367;SDS011;50692;53.314;-6.300;2023-09-12T05:06:31;3.92;;;2.40;;
64367;SDS011;50692;53.314;-6.300;2023-09-12T05:09:17;3.83;;;2.10;;
64367;SDS011;50692;53.314;-6.300;2023-09-12T05:12:02;3.83;;;2.15;;
64367;SDS011;50692;53.314;-6.300;2023-09-12T05:14:48;2.70;;;1.70;;
64367;SDS011;50692;53.314;-6.300;2023-09-12T05:17:34;4.07;;;1.83;;
64367;SDS011;50692;53.314;-6.300;2023-09-12T05:20:20;6.95;;;2.00;;
64367;SDS011;50692;53.314;-6.300;2023-09-12T05:23:06;3.72;;;1.58;;
64367;SDS011;50692;53.314;-6.300;2023-09-12T05:25:53;3.15;;;1.48;;
64367;SDS011;50692;53.314;-6.300;2023-09-12T05:28:39;4.45;;;1.40;;
64367;SDS011;50692;53.314;-6.300;2023-09-12T05:31:25;4.57;;;1.58;;
64367;SDS011;50692;53.314;-6.300;2023-09-12T05:34:11;2.05;;;1.35;;
64367;SDS011;50692;53.314;-6.300;2023-09-12T05:36:56;2.78;;;1.48;;
64367;SDS011;50692;53.314;-6.300;2023-09-12T05:39:42;3.58;;;1.45;;
64367;SDS011;50692;53.314;-6.300;2023-09-12T05:42:28;2.83;;;1.45;;
64367;SDS011;50692;53.314;-6.300;2023-09-12T05:45:14;4.15;;;1.42;;
64367;SDS011;50692;53.314;-6.300;2023-09-12T05:48:00;5.45;;;1.40;;
64367;SDS011;50692;53.314;-6.300;2023-09-12T05:50:46;4.20;;;1.35;;
64367;SDS011;50692;53.314;-6.300;2023-09-12T05:53:33;3.33;;;1.50;;
64367;SDS011;50692;53.314;-6.300;2023-09-12T05:56:19;3.05;;;1.75;;
64367;SDS011;50692;53.314;-6.300;2023-09-12T05:59:06;5.88;;;1.67;;
64367;SDS011;50692;53.314;-6.300;2023-09-12T06:01:51;5.28;;;1.60;;
64367;SDS011;50692;53.314;-6.300;2023-09-12T06:04:37;4.38;;;1.38;;
64367;SDS011;50692;53.314;-6.300;2023-09-12T06:07:23;3.95;;;1.10;;
64367;SDS011;50692;53.314;-6.300;2023-09-12T06:10:10;2.95;;;1.20;;
64367;SDS011;50692;53.314;-6.300;2023-09-12T06:12:56;4.15;;;1.50;;
64367;SDS011;50692;53.314;-6.300;2023-09-12T06:15:43;3.05;;;1.38;;
64367;SDS011;50692;53.314;-6.300;2023-09-12T06:18:28;3.28;;;1.50;;
64367;SDS011;50692;53.314;-6.300;2023-09-12T06:21:16;4.20;;;1.20;;
64367;SDS011;50692;53.314;-6.300;2023-09-12T06:24:12;4.32;;;1.23;;
64367;SDS011;50692;53.314;-6.300;2023-09-12T06:26:59;3.38;;;1.20;;
64367;SDS011;50692;53.314;-6.300;2023-09-12T06:29:48;4.15;;;1.40;;
64367;SDS011;50692;53.314;-6.300;2023-09-12T06:32:34;3.80;;;1.58;;
64367;SDS011;50692;53.314;-6.300;2023-09-12T06:35:20;3.00;;;1.27;;
64367;SDS011;50692;53.314;-6.300;2023-09-12T06:38:06;3.58;;;1.42;;
64367;SDS011;50692;53.314;-6.300;2023-09-12T06:40:52;3.38;;;1.30;;
64367;SDS011;50692;53.314;-6.300;2023-09-12T06:43:38;2.05;;;1.25;;
64367;SDS011;50692;53.314;-6.300;2023-09-12T06:46:24;2.20;;;1.27;;
64367;SDS011;50692;53.314;-6.300;2023-09-12T06:49:10;2.65;;;1.27;;
64367;SDS011;50692;53.314;-6.300;2023-09-12T06:51:56;1.92;;;1.20;;
64367;SDS011;50692;53.314;-6.300;2023-09-12T06:54:41;5.50;;;1.98;;
64367;SDS011;50692;53.314;-6.300;2023-09-12T06:57:27;4.55;;;1.10;;
64367;SDS011;50692;53.314;-6.300;2023-09-12T07:00:14;3.00;;;1.20;;
64367;SDS011;50692;53.314;-6.300;2023-09-12T07:03:00;3.42;;;1.50;;
64367;SDS011;50692;53.314;-6.300;2023-09-12T07:05:46;4.63;;;1.75;;
64367;SDS011;50692;53.314;-6.300;2023-09-12T07:08:32;7.13;;;1.75;;
64367;SDS011;50692;53.314;-6.300;2023-09-12T07:11:18;3.88;;;1.40;;
64367;SDS011;50692;53.314;-6.300;2023-09-12T07:14:04;3.83;;;1.55;;
64367;SDS011;50692;53.314;-6.300;2023-09-12T07:16:50;5.53;;;1.75;;
64367;SDS011;50692;53.314;-6.300;2023-09-12T07:19:36;6.68;;;1.63;;
64367;SDS011;50692;53.314;-6.300;2023-09-12T07:22:22;3.15;;;1.15;;
64367;SDS011;50692;53.314;-6.300;2023-09-12T07:25:08;2.95;;;1.23;;
64367;SDS011;50692;53.314;-6.300;2023-09-12T07:27:57;3.08;;;1.25;;
64367;SDS011;50692;53.314;-6.300;2023-09-12T07:30:45;3.72;;;1.13;;
64367;SDS011;50692;53.314;-6.300;2023-09-12T07:33:31;3.28;;;1.42;;
64367;SDS011;50692;53.314;-6.300;2023-09-12T07:36:17;3.72;;;1.15;;
64367;SDS011;50692;53.314;-6.300;2023-09-12T07:39:03;4.28;;;1.40;;
64367;SDS011;50692;53.314;-6.300;2023-09-12T07:41:49;4.07;;;1.60;;
64367;SDS011;50692;53.314;-6.300;2023-09-12T07:44:35;5.07;;;1.42;;
64367;SDS011;50692;53.314;-6.300;2023-09-12T07:47:21;3.25;;;1.45;;
64367;SDS011;50692;53.314;-6.300;2023-09-12T07:50:07;3.38;;;1.63;;
64367;SDS011;50692;53.314;-6.300;2023-09-12T07:52:53;3.25;;;1.20;;
64367;SDS011;50692;53.314;-6.300;2023-09-12T07:55:39;3.65;;;1.42;;
64367;SDS011;50692;53.314;-6.300;2023-09-12T07:58:31;3.40;;;1.30;;
64367;SDS011;50692;53.314;-6.300;2023-09-12T08:01:17;3.55;;;1.30;;
64367;SDS011;50692;53.314;-6.300;2023-09-12T08:04:03;3.40;;;1.10;;
64367;SDS011;50692;53.314;-6.300;2023-09-12T08:06:49;5.78;;;1.92;;
64367;SDS011;50692;53.314;-6.300;2023-09-12T08:09:48;3.80;;;1.48;;
64367;SDS011;50692;53.314;-6.300;2023-09-12T08:12:38;3.08;;;1.15;;
64367;SDS011;50692;53.314;-6.300;2023-09-12T08:15:24;3.58;;;1.42;;
64367;SDS011;50692;53.314;-6.300;2023-09-12T08:18:10;5.03;;;1.50;;
64367;SDS011;50692;53.314;-6.300;2023-09-12T08:20:56;3.22;;;1.33;;
64367;SDS011;50692;53.314;-6.300;2023-09-12T08:23:42;4.82;;;1.42;;
64367;SDS011;50692;53.314;-6.300;2023-09-12T08:26:27;5.57;;;1.30;;
64367;SDS011;50692;53.314;-6.300;2023-09-12T08:29:13;5.10;;;1.25;;
64367;SDS011;50692;53.314;-6.300;2023-09-12T08:31:59;3.13;;;1.27;;
64367;SDS011;50692;53.314;-6.300;2023-09-12T08:34:45;3.72;;;1.60;;
64367;SDS011;50692;53.314;-6.300;2023-09-12T08:37:31;2.50;;;1.20;;
64367;SDS011;50692;53.314;-6.300;2023-09-12T08:40:17;5.78;;;1.45;;
64367;SDS011;50692;53.314;-6.300;2023-09-12T08:43:03;2.88;;;1.48;;
64367;SDS011;50692;53.314;-6.300;2023-09-12T08:45:49;2.90;;;1.30;;
64367;SDS011;50692;53.314;-6.300;2023-09-12T08:48:36;4.47;;;1.80;;
64367;SDS011;50692;53.314;-6.300;2023-09-12T08:51:23;1.85;;;1.08;;
64367;SDS011;50692;53.314;-6.300;2023-09-12T08:54:09;4.55;;;1.25;;
64367;SDS011;50692;53.314;-6.300;2023-09-12T08:56:55;2.13;;;1.33;;
64367;SDS011;50692;53.314;-6.300;2023-09-12T08:59:42;5.85;;;1.60;;
64367;SDS011;50692;53.314;-6.300;2023-09-12T09:02:29;5.45;;;1.70;;
64367;SDS011;50692;53.314;-6.300;2023-09-12T09:05:15;3.85;;;1.73;;
64367;SDS011;50692;53.314;-6.300;2023-09-12T09:08:02;4.03;;;1.20;;
64367;SDS011;50692;53.314;-6.300;2023-09-12T09:10:58;3.47;;;1.27;;
64367;SDS011;50692;53.314;-6.300;2023-09-12T09:13:47;4.37;;;1.27;;
64367;SDS011;50692;53.314;-6.300;2023-09-12T09:16:33;4.50;;;1.20;;
64367;SDS011;50692;53.314;-6.300;2023-09-12T09:19:20;2.83;;;1.23;;
64367;SDS011;50692;53.314;-6.300;2023-09-12T09:22:06;3.60;;;1.08;;
64367;SDS011;50692;53.314;-6.300;2023-09-12T09:25:02;3.75;;;1.25;;
64367;SDS011;50692;53.314;-6.300;2023-09-12T09:27:55;4.65;;;1.67;;
64367;SDS011;50692;53.314;-6.300;2023-09-12T09:30:42;6.90;;;2.20;;
64367;SDS011;50692;53.314;-6.300;2023-09-12T09:33:35;4.57;;;1.25;;
64367;SDS011;50692;53.314;-6.300;2023-09-12T09:36:21;4.80;;;1.27;;
64367;SDS011;50692;53.314;-6.300;2023-09-12T09:39:07;2.60;;;1.10;;
64367;SDS011;50692;53.314;-6.300;2023-09-12T09:41:54;3.20;;;1.17;;
64367;SDS011;50692;53.314;-6.300;2023-09-12T09:44:41;4.53;;;1.30;;
64367;SDS011;50692;53.314;-6.300;2023-09-12T09:47:27;2.05;;;0.93;;
64367;SDS011;50692;53.314;-6.300;2023-09-12T09:50:16;3.92;;;1.20;;
64367;SDS011;50692;53.314;-6.300;2023-09-12T09:55:50;4.10;;;1.15;;
64367;SDS011;50692;53.314;-6.300;2023-09-12T09:58:35;4.10;;;1.00;;
64367;SDS011;50692;53.314;-6.300;2023-09-12T10:01:23;4.43;;;0.90;;
64367;SDS011;50692;53.314;-6.300;2023-09-12T10:04:13;2.92;;;1.15;;
64367;SDS011;50692;53.314;-6.300;2023-09-12T10:07:00;3.17;;;1.10;;
64367;SDS011;50692;53.314;-6.300;2023-09-12T10:09:46;2.35;;;1.15;;
64367;SDS011;50692;53.314;-6.300;2023-09-12T10:12:35;2.17;;;1.10;;
64367;SDS011;50692;53.314;-6.300;2023-09-12T10:15:24;2.83;;;1.33;;
64367;SDS011;50692;53.314;-6.300;2023-09-12T10:18:14;4.93;;;1.02;;
64367;SDS011;50692;53.314;-6.300;2023-09-12T10:21:07;2.97;;;1.10;;
64367;SDS011;50692;53.314;-6.300;2023-09-12T10:24:00;3.08;;;0.95;;
64367;SDS011;50692;53.314;-6.300;2023-09-12T10:26:50;2.30;;;1.00;;
64367;SDS011;50692;53.314;-6.300;2023-09-12T10:29:37;2.03;;;1.10;;
64367;SDS011;50692;53.314;-6.300;2023-09-12T10:32:23;1.98;;;1.02;;
64367;SDS011;50692;53.314;-6.300;2023-09-12T10:35:09;3.53;;;0.95;;
64367;SDS011;50692;53.314;-6.300;2023-09-12T10:37:55;3.03;;;0.90;;
64367;SDS011;50692;53.314;-6.300;2023-09-12T10:40:46;4.10;;;1.75;;
64367;SDS011;50692;53.314;-6.300;2023-09-12T10:43:34;3.88;;;1.30;;
64367;SDS011;50692;53.314;-6.300;2023-09-12T10:46:21;1.70;;;0.73;;
64367;SDS011;50692;53.314;-6.300;2023-09-12T10:49:11;3.33;;;1.05;;
64367;SDS011;50692;53.314;-6.300;2023-09-12T10:51:58;2.97;;;1.10;;
64367;SDS011;50692;53.314;-6.300;2023-09-12T10:54:45;1.83;;;1.05;;
64367;SDS011;50692;53.314;-6.300;2023-09-12T10:57:31;4.25;;;1.10;;
64367;SDS011;50692;53.314;-6.300;2023-09-12T11:00:18;3.83;;;1.50;;
64367;SDS011;50692;53.314;-6.300;2023-09-12T11:06:48;2.85;;;1.08;;
64367;SDS011;50692;53.314;-6.300;2023-09-12T11:09:27;3.08;;;1.10;;
64367;SDS011;50692;53.314;-6.300;2023-09-12T11:12:33;3.67;;;1.08;;
64367;SDS011;50692;53.314;-6.300;2023-09-12T11:15:22;2.00;;;0.95;;
64367;SDS011;50692;53.314;-6.300;2023-09-12T11:18:10;2.10;;;1.25;;
64367;SDS011;50692;53.314;-6.300;2023-09-12T11:20:59;2.75;;;0.80;;
64367;SDS011;50692;53.314;-6.300;2023-09-12T11:23:53;2.65;;;1.20;;
64367;SDS011;50692;53.314;-6.300;2023-09-12T11:26:59;2.00;;;1.00;;
64367;SDS011;50692;53.314;-6.300;2023-09-12T11:29:47;2.28;;;0.93;;
64367;SDS011;50692;53.314;-6.300;2023-09-12T11:32:34;6.38;;;1.38;;
64367;SDS011;50692;53.314;-6.300;2023-09-12T11:35:22;2.13;;;0.85;;
64367;SDS011;50692;53.314;-6.300;2023-09-12T11:38:09;4.15;;;1.00;;
64367;SDS011;50692;53.314;-6.300;2023-09-12T11:40:57;3.08;;;1.20;;
64367;SDS011;50692;53.314;-6.300;2023-09-12T11:43:44;2.35;;;0.80;;
64367;SDS011;50692;53.314;-6.300;2023-09-12T11:46:30;3.45;;;1.00;;
64367;SDS011;50692;53.314;-6.300;2023-09-12T11:49:16;4.47;;;1.23;;
64367;SDS011;50692;53.314;-6.300;2023-09-12T11:52:03;3.53;;;0.90;;
64367;SDS011;50692;53.314;-6.300;2023-09-12T11:54:53;8.43;;;2.10;;
64367;SDS011;50692;53.314;-6.300;2023-09-12T11:57:39;3.03;;;1.10;;
64367;SDS011;50692;53.314;-6.300;2023-09-12T12:00:25;1.42;;;0.82;;
64367;SDS011;50692;53.314;-6.300;2023-09-12T12:03:12;2.70;;;1.00;;
64367;SDS011;50692;53.314;-6.300;2023-09-12T12:05:58;1.90;;;0.90;;
64367;SDS011;50692;53.314;-6.300;2023-09-12T12:08:44;2.22;;;0.80;;
64367;SDS011;50692;53.314;-6.300;2023-09-12T12:11:31;1.45;;;0.90;;
64367;SDS011;50692;53.314;-6.300;2023-09-12T12:14:18;3.60;;;1.13;;
64367;SDS011;50692;53.314;-6.300;2023-09-12T12:17:08;3.42;;;1.05;;
64367;SDS011;50692;53.314;-6.300;2023-09-12T12:19:55;1.77;;;0.70;;
64367;SDS011;50692;53.314;-6.300;2023-09-12T12:22:41;3.95;;;1.00;;
64367;SDS011;50692;53.314;-6.300;2023-09-12T12:25:31;2.00;;;1.08;;
64367;SDS011;50692;53.314;-6.300;2023-09-12T12:28:19;2.60;;;1.10;;
64367;SDS011;50692;53.314;-6.300;2023-09-12T12:31:05;3.25;;;1.13;;
64367;SDS011;50692;53.314;-6.300;2023-09-12T12:33:54;2.42;;;1.17;;
64367;SDS011;50692;53.314;-6.300;2023-09-12T12:36:41;1.42;;;0.80;;
64367;SDS011;50692;53.314;-6.300;2023-09-12T12:39:28;1.80;;;0.80;;
64367;SDS011;50692;53.314;-6.300;2023-09-12T12:42:14;1.70;;;1.02;;
64367;SDS011;50692;53.314;-6.300;2023-09-12T12:45:00;2.00;;;0.90;;
64367;SDS011;50692;53.314;-6.300;2023-09-12T12:47:45;2.53;;;1.00;;
64367;SDS011;50692;53.314;-6.300;2023-09-12T12:50:34;2.28;;;1.05;;
64367;SDS011;50692;53.314;-6.300;2023-09-12T12:53:40;3.05;;;1.30;;
64367;SDS011;50692;53.314;-6.300;2023-09-12T12:56:27;2.67;;;1.10;;
64367;SDS011;50692;53.314;-6.300;2023-09-12T12:59:14;1.85;;;1.00;;
64367;SDS011;50692;53.314;-6.300;2023-09-12T13:02:00;3.75;;;1.10;;
64367;SDS011;50692;53.314;-6.300;2023-09-12T13:04:46;3.42;;;0.90;;
64367;SDS011;50692;53.314;-6.300;2023-09-12T13:07:32;2.58;;;1.10;;
64367;SDS011;50692;53.314;-6.300;2023-09-12T13:10:18;4.03;;;1.27;;
64367;SDS011;50692;53.314;-6.300;2023-09-12T13:13:05;2.90;;;1.13;;
64367;SDS011;50692;53.314;-6.300;2023-09-12T13:15:51;3.17;;;1.20;;
64367;SDS011;50692;53.314;-6.300;2023-09-12T13:18:37;2.58;;;1.20;;
64367;SDS011;50692;53.314;-6.300;2023-09-12T13:21:23;2.55;;;1.20;;
64367;SDS011;50692;53.314;-6.300;2023-09-12T13:24:09;2.22;;;0.98;;
64367;SDS011;50692;53.314;-6.300;2023-09-12T13:26:55;3.25;;;1.15;;
64367;SDS011;50692;53.314;-6.300;2023-09-12T13:29:40;2.60;;;1.00;;
64367;SDS011;50692;53.314;-6.300;2023-09-12T13:32:26;2.88;;;1.00;;
64367;SDS011;50692;53.314;-6.300;2023-09-12T13:35:12;1.38;;;0.85;;
64367;SDS011;50692;53.314;-6.300;2023-09-12T13:37:58;2.22;;;1.02;;
64367;SDS011;50692;53.314;-6.300;2023-09-12T13:40:44;2.25;;;1.10;;
64367;SDS011;50692;53.314;-6.300;2023-09-12T13:43:31;4.90;;;1.27;;
64367;SDS011;50692;53.314;-6.300;2023-09-12T13:46:17;3.20;;;1.20;;
64367;SDS011;50692;53.314;-6.300;2023-09-12T13:49:03;2.47;;;1.10;;
64367;SDS011;50692;53.314;-6.300;2023-09-12T13:51:48;1.80;;;0.82;;
64367;SDS011;50692;53.314;-6.300;2023-09-12T13:54:34;3.20;;;1.00;;
64367;SDS011;50692;53.314;-6.300;2023-09-12T13:57:20;2.22;;;1.02;;
64367;SDS011;50692;53.314;-6.300;2023-09-12T14:00:06;2.80;;;0.95;;
64367;SDS011;50692;53.314;-6.300;2023-09-12T14:02:52;1.45;;;0.82;;
64367;SDS011;50692;53.314;-6.300;2023-09-12T14:05:38;2.85;;;1.00;;
64367;SDS011;50692;53.314;-6.300;2023-09-12T14:08:24;1.98;;;1.00;;
64367;SDS011;50692;53.314;-6.300;2023-09-12T14:11:10;3.92;;;1.23;;
64367;SDS011;50692;53.314;-6.300;2023-09-12T14:13:56;3.30;;;1.20;;
64367;SDS011;50692;53.314;-6.300;2023-09-12T14:16:41;2.90;;;1.02;;
64367;SDS011;50692;53.314;-6.300;2023-09-12T14:19:27;3.85;;;1.08;;
64367;SDS011;50692;53.314;-6.300;2023-09-12T14:22:13;3.92;;;1.10;;
64367;SDS011;50692;53.314;-6.300;2023-09-12T14:24:59;2.75;;;1.50;;
64367;SDS011;50692;53.314;-6.300;2023-09-12T14:27:45;3.97;;;1.17;;
64367;SDS011;50692;53.314;-6.300;2023-09-12T14:30:31;2.65;;;1.00;;
64367;SDS011;50692;53.314;-6.300;2023-09-12T14:33:21;4.30;;;1.30;;
64367;SDS011;50692;53.314;-6.300;2023-09-12T14:36:07;3.55;;;1.30;;
64367;SDS011;50692;53.314;-6.300;2023-09-12T14:38:54;2.42;;;1.10;;
64367;SDS011;50692;53.314;-6.300;2023-09-12T14:41:40;2.95;;;1.13;;
64367;SDS011;50692;53.314;-6.300;2023-09-12T14:44:26;2.78;;;1.42;;
64367;SDS011;50692;53.314;-6.300;2023-09-12T14:47:13;3.92;;;1.40;;
64367;SDS011;50692;53.314;-6.300;2023-09-12T14:49:59;1.95;;;1.30;;
64367;SDS011;50692;53.314;-6.300;2023-09-12T14:52:44;2.00;;;1.20;;
64367;SDS011;50692;53.314;-6.300;2023-09-12T14:55:30;3.05;;;1.48;;
64367;SDS011;50692;53.314;-6.300;2023-09-12T14:58:16;3.47;;;1.52;;
64367;SDS011;50692;53.314;-6.300;2023-09-12T15:01:02;4.03;;;1.40;;
64367;SDS011;50692;53.314;-6.300;2023-09-12T15:03:48;3.28;;;1.63;;
64367;SDS011;50692;53.314;-6.300;2023-09-12T15:06:34;3.25;;;1.50;;
64367;SDS011;50692;53.314;-6.300;2023-09-12T15:09:20;2.03;;;1.10;;
64367;SDS011;50692;53.314;-6.300;2023-09-12T15:12:06;2.88;;;1.23;;
64367;SDS011;50692;53.314;-6.300;2023-09-12T15:14:52;5.07;;;1.38;;
64367;SDS011;50692;53.314;-6.300;2023-09-12T15:17:38;3.42;;;1.38;;
64367;SDS011;50692;53.314;-6.300;2023-09-12T15:20:24;2.15;;;1.30;;
64367;SDS011;50692;53.314;-6.300;2023-09-12T15:23:09;3.35;;;1.40;;
64367;SDS011;50692;53.314;-6.300;2023-09-12T15:25:57;4.57;;;1.70;;
64367;SDS011;50692;53.314;-6.300;2023-09-12T15:28:42;2.75;;;1.30;;
64367;SDS011;50692;53.314;-6.300;2023-09-12T15:31:28;3.53;;;1.38;;
64367;SDS011;50692;53.314;-6.300;2023-09-12T15:34:14;2.60;;;1.40;;
64367;SDS011;50692;53.314;-6.300;2023-09-12T15:37:07;2.78;;;1.30;;
64367;SDS011;50692;53.314;-6.300;2023-09-12T15:39:54;3.50;;;1.50;;
64367;SDS011;50692;53.314;-6.300;2023-09-12T15:42:40;3.75;;;1.63;;
64367;SDS011;50692;53.314;-6.300;2023-09-12T15:45:26;2.30;;;1.30;;
64367;SDS011;50692;53.314;-6.300;2023-09-12T15:48:12;2.97;;;1.23;;
64367;SDS011;50692;53.314;-6.300;2023-09-12T15:50:57;2.65;;;1.50;;
64367;SDS011;50692;53.314;-6.300;2023-09-12T15:53:43;4.90;;;2.00;;
64367;SDS011;50692;53.314;-6.300;2023-09-12T15:56:29;4.97;;;1.50;;
64367;SDS011;50692;53.314;-6.300;2023-09-12T15:59:15;2.22;;;1.23;;
64367;SDS011;50692;53.314;-6.300;2023-09-12T16:02:01;3.33;;;1.77;;
64367;SDS011;50692;53.314;-6.300;2023-09-12T16:04:46;4.60;;;1.50;;
64367;SDS011;50692;53.314;-6.300;2023-09-12T16:07:33;3.08;;;1.52;;
64367;SDS011;50692;53.314;-6.300;2023-09-12T16:10:19;3.25;;;1.50;;
64367;SDS011;50692;53.314;-6.300;2023-09-12T16:13:05;3.33;;;1.63;;
64367;SDS011;50692;53.314;-6.300;2023-09-12T16:15:51;4.72;;;1.60;;
64367;SDS011;50692;53.314;-6.300;2023-09-12T16:18:36;3.67;;;1.90;;
64367;SDS011;50692;53.314;-6.300;2023-09-12T16:21:25;4.00;;;1.67;;
64367;SDS011;50692;53.314;-6.300;2023-09-12T16:24:11;3.85;;;1.60;;
64367;SDS011;50692;53.314;-6.300;2023-09-12T16:26:58;2.50;;;1.45;;
64367;SDS011;50692;53.314;-6.300;2023-09-12T16:29:46;3.83;;;1.65;;
64367;SDS011;50692;53.314;-6.300;2023-09-12T16:32:31;4.72;;;1.85;;
64367;SDS011;50692;53.314;-6.300;2023-09-12T16:35:17;2.67;;;1.40;;
64367;SDS011;50692;53.314;-6.300;2023-09-12T16:38:03;4.60;;;1.63;;